sensor_id;sensor_type;location;lat;lon;timestamp;temperature;humidity
41310;DHT22;27057;51.438;-0.010;2023-05-21T00:01:06;12.80;99.90
41310;DHT22;27057;51.438;-0.010;2023-05-21T00:03:38;12.60;99.90
41310;DHT22;27057;51.438;-0.010;2023-05-21T00:06:08;13.00;99.90
41310;DHT22;27057;51.438;-0.010;2023-05-21T00:11:16;12.50;99.90
41310;DHT22;27057;51.438;-0.010;2023-05-21T00:13:44;12.40;99.90
41310;DHT22;27057;51.438;-0.010;2023-05-21T00:16:12;12.40;99.90
41310;DHT22;27057;51.438;-0.010;2023-05-21T00:18:39;12.40;99.90
41310;DHT22;27057;51.438;-0.010;2023-05-21T00:21:07;12.40;99.90
41310;DHT22;27057;51.438;-0.010;2023-05-21T00:23:35;12.40;99.90
41310;DHT22;27057;51.438;-0.010;2023-05-21T00:26:04;12.40;99.90
41310;DHT22;27057;51.438;-0.010;2023-05-21T00:28:37;12.20;99.90
41310;DHT22;27057;51.438;-0.010;2023-05-21T00:31:05;12.40;99.90
41310;DHT22;27057;51.438;-0.010;2023-05-21T00:33:33;12.40;99.90
41310;DHT22;27057;51.438;-0.010;2023-05-21T00:36:04;12.20;99.90
41310;DHT22;27057;51.438;-0.010;2023-05-21T00:38:43;12.20;99.90
41310;DHT22;27057;51.438;-0.010;2023-05-21T00:41:12;12.10;99.90
41310;DHT22;27057;51.438;-0.010;2023-05-21T00:43:40;12.20;99.90
41310;DHT22;27057;51.438;-0.010;2023-05-21T00:46:12;12.00;99.90
41310;DHT22;27057;51.438;-0.010;2023-05-21T00:48:44;12.60;99.90
41310;DHT22;27057;51.438;-0.010;2023-05-21T00:51:29;12.30;99.90
41310;DHT22;27057;51.438;-0.010;2023-05-21T00:53:58;12.00;99.90
41310;DHT22;27057;51.438;-0.010;2023-05-21T00:56:33;12.10;99.90
41310;DHT22;27057;51.438;-0.010;2023-05-21T00:59:07;11.90;99.90
41310;DHT22;27057;51.438;-0.010;2023-05-21T01:01:35;11.90;99.90
41310;DHT22;27057;51.438;-0.010;2023-05-21T01:04:05;11.90;99.90
41310;DHT22;27057;51.438;-0.010;2023-05-21T01:06:33;11.90;99.90
41310;DHT22;27057;51.438;-0.010;2023-05-21T01:09:01;11.80;99.90
41310;DHT22;27057;51.438;-0.010;2023-05-21T01:11:54;11.90;99.90
41310;DHT22;27057;51.438;-0.010;2023-05-21T01:14:39;11.50;99.90
41310;DHT22;27057;51.438;-0.010;2023-05-21T01:17:08;11.70;99.90
41310;DHT22;27057;51.438;-0.010;2023-05-21T01:19:36;11.80;99.90
41310;DHT22;27057;51.438;-0.010;2023-05-21T01:22:06;11.50;99.90
41310;DHT22;27057;51.438;-0.010;2023-05-21T01:24:34;11.60;99.90
41310;DHT22;27057;51.438;-0.010;2023-05-21T01:27:04;11.60;99.90
41310;DHT22;27057;51.438;-0.010;2023-05-21T01:29:34;11.50;99.90
41310;DHT22;27057;51.438;-0.010;2023-05-21T01:32:41;11.50;99.90
41310;DHT22;27057;51.438;-0.010;2023-05-21T01:35:14;11.40;99.90
41310;DHT22;27057;51.438;-0.010;2023-05-21T01:40:30;11.40;99.90
41310;DHT22;27057;51.438;-0.010;2023-05-21T01:42:59;11.60;99.90
41310;DHT22;27057;51.438;-0.010;2023-05-21T01:45:30;11.00;99.90
41310;DHT22;27057;51.438;-0.010;2023-05-21T01:47:58;11.50;99.90
41310;DHT22;27057;51.438;-0.010;2023-05-21T01:50:26;11.60;99.90
41310;DHT22;27057;51.438;-0.010;2023-05-21T01:52:55;11.20;99.90
41310;DHT22;27057;51.438;-0.010;2023-05-21T01:55:28;11.20;99.90
41310;DHT22;27057;51.438;-0.010;2023-05-21T01:57:57;11.20;99.90
41310;DHT22;27057;51.438;-0.010;2023-05-21T02:00:28;11.70;99.90
41310;DHT22;27057;51.438;-0.010;2023-05-21T02:03:06;11.20;99.90
41310;DHT22;27057;51.438;-0.010;2023-05-21T02:05:34;13.90;99.90
41310;DHT22;27057;51.438;-0.010;2023-05-21T02:08:02;11.10;99.90
41310;DHT22;27057;51.438;-0.010;2023-05-21T02:10:29;11.10;99.90
41310;DHT22;27057;51.438;-0.010;2023-05-21T02:12:57;11.10;99.90
41310;DHT22;27057;51.438;-0.010;2023-05-21T02:15:25;10.90;99.90
41310;DHT22;27057;51.438;-0.010;2023-05-21T02:17:53;12.30;99.90
41310;DHT22;27057;51.438;-0.010;2023-05-21T02:20:21;11.20;99.90
41310;DHT22;27057;51.438;-0.010;2023-05-21T02:22:49;11.10;99.90
41310;DHT22;27057;51.438;-0.010;2023-05-21T02:25:18;11.00;99.90
41310;DHT22;27057;51.438;-0.010;2023-05-21T02:27:48;12.10;99.90
41310;DHT22;27057;51.438;-0.010;2023-05-21T02:30:19;10.90;99.90
41310;DHT22;27057;51.438;-0.010;2023-05-21T02:32:47;10.80;99.90
41310;DHT22;27057;51.438;-0.010;2023-05-21T02:35:16;11.00;99.90
41310;DHT22;27057;51.438;-0.010;2023-05-21T02:37:43;10.70;99.90
41310;DHT22;27057;51.438;-0.010;2023-05-21T02:40:11;11.10;99.90
41310;DHT22;27057;51.438;-0.010;2023-05-21T02:42:39;10.70;99.90
41310;DHT22;27057;51.438;-0.010;2023-05-21T02:45:11;10.70;99.90
41310;DHT22;27057;51.438;-0.010;2023-05-21T02:47:42;10.70;99.90
41310;DHT22;27057;51.438;-0.010;2023-05-21T02:50:09;10.70;99.90
41310;DHT22;27057;51.438;-0.010;2023-05-21T02:52:45;10.60;99.90
41310;DHT22;27057;51.438;-0.010;2023-05-21T02:55:12;10.50;99.90
41310;DHT22;27057;51.438;-0.010;2023-05-21T02:57:40;11.70;99.90
41310;DHT22;27057;51.438;-0.010;2023-05-21T03:00:07;11.30;99.90
41310;DHT22;27057;51.438;-0.010;2023-05-21T03:02:37;10.60;99.90
41310;DHT22;27057;51.438;-0.010;2023-05-21T03:05:05;10.50;99.90
41310;DHT22;27057;51.438;-0.010;2023-05-21T03:07:33;10.60;99.90
41310;DHT22;27057;51.438;-0.010;2023-05-21T03:10:01;10.40;99.90
41310;DHT22;27057;51.438;-0.010;2023-05-21T03:17:27;10.40;99.90
41310;DHT22;27057;51.438;-0.010;2023-05-21T03:22:22;10.40;99.90
41310;DHT22;27057;51.438;-0.010;2023-05-21T03:24:49;10.20;99.90
41310;DHT22;27057;51.438;-0.010;2023-05-21T03:27:17;10.30;99.90
41310;DHT22;27057;51.438;-0.010;2023-05-21T03:29:46;10.40;99.90
41310;DHT22;27057;51.438;-0.010;2023-05-21T03:32:15;10.40;99.90
41310;DHT22;27057;51.438;-0.010;2023-05-21T03:34:45;10.60;99.90
41310;DHT22;27057;51.438;-0.010;2023-05-21T03:37:14;10.40;99.90
41310;DHT22;27057;51.438;-0.010;2023-05-21T03:39:42;11.60;99.90
41310;DHT22;27057;51.438;-0.010;2023-05-21T03:42:09;10.10;99.90
41310;DHT22;27057;51.438;-0.010;2023-05-21T03:44:50;10.20;99.90
41310;DHT22;27057;51.438;-0.010;2023-05-21T03:47:36;11.20;99.90
41310;DHT22;27057;51.438;-0.010;2023-05-21T03:50:07;10.40;99.90
41310;DHT22;27057;51.438;-0.010;2023-05-21T03:52:36;10.20;99.90
41310;DHT22;27057;51.438;-0.010;2023-05-21T03:55:05;10.30;99.90
41310;DHT22;27057;51.438;-0.010;2023-05-21T03:57:34;10.10;99.90
41310;DHT22;27057;51.438;-0.010;2023-05-21T04:00:02;10.10;99.90
41310;DHT22;27057;51.438;-0.010;2023-05-21T04:05:12;10.10;99.90
41310;DHT22;27057;51.438;-0.010;2023-05-21T04:07:39;10.10;99.90
41310;DHT22;27057;51.438;-0.010;2023-05-21T04:10:07;10.20;99.90
41310;DHT22;27057;51.438;-0.010;2023-05-21T04:12:34;10.10;99.90
41310;DHT22;27057;51.438;-0.010;2023-05-21T04:15:04;10.10;99.90
41310;DHT22;27057;51.438;-0.010;2023-05-21T04:17:32;10.10;99.90
41310;DHT22;27057;51.438;-0.010;2023-05-21T04:20:01;10.20;99.90
41310;DHT22;27057;51.438;-0.010;2023-05-21T04:22:30;10.10;99.90
41310;DHT22;27057;51.438;-0.010;2023-05-21T04:24:57;11.10;99.90
41310;DHT22;27057;51.438;-0.010;2023-05-21T04:27:30;10.10;99.90
41310;DHT22;27057;51.438;-0.010;2023-05-21T04:32:26;10.10;99.90
41310;DHT22;27057;51.438;-0.010;2023-05-21T04:34:54;10.10;99.90
41310;DHT22;27057;51.438;-0.010;2023-05-21T04:37:22;10.10;99.90
41310;DHT22;27057;51.438;-0.010;2023-05-21T04:42:24;10.20;99.90
41310;DHT22;27057;51.438;-0.010;2023-05-21T04:47:26;10.20;99.90
41310;DHT22;27057;51.438;-0.010;2023-05-21T04:54:58;10.30;99.90
41310;DHT22;27057;51.438;-0.010;2023-05-21T04:57:26;11.20;99.90
41310;DHT22;27057;51.438;-0.010;2023-05-21T04:59:54;10.10;99.90
41310;DHT22;27057;51.438;-0.010;2023-05-21T05:02:24;10.50;99.90
41310;DHT22;27057;51.438;-0.010;2023-05-21T05:04:51;10.30;99.90
41310;DHT22;27057;51.438;-0.010;2023-05-21T05:07:19;10.40;99.90
41310;DHT22;27057;51.438;-0.010;2023-05-21T05:09:46;11.50;99.90
41310;DHT22;27057;51.438;-0.010;2023-05-21T05:12:14;10.40;99.90
41310;DHT22;27057;51.438;-0.010;2023-05-21T05:14:41;10.30;99.90
41310;DHT22;27057;51.438;-0.010;2023-05-21T05:17:08;10.80;99.90
41310;DHT22;27057;51.438;-0.010;2023-05-21T05:19:36;9.90;99.90
41310;DHT22;27057;51.438;-0.010;2023-05-21T05:22:04;10.70;99.90
41310;DHT22;27057;51.438;-0.010;2023-05-21T05:24:33;10.70;99.90
41310;DHT22;27057;51.438;-0.010;2023-05-21T05:27:02;11.00;99.90
41310;DHT22;27057;51.438;-0.010;2023-05-21T05:29:31;10.80;99.90
41310;DHT22;27057;51.438;-0.010;2023-05-21T05:31:59;10.70;99.90
41310;DHT22;27057;51.438;-0.010;2023-05-21T05:34:26;10.80;99.90
41310;DHT22;27057;51.438;-0.010;2023-05-21T05:36:54;10.90;99.90
41310;DHT22;27057;51.438;-0.010;2023-05-21T05:39:23;12.00;99.90
41310;DHT22;27057;51.438;-0.010;2023-05-21T05:41:52;11.10;99.90
41310;DHT22;27057;51.438;-0.010;2023-05-21T05:44:21;11.00;99.90
41310;DHT22;27057;51.438;-0.010;2023-05-21T05:46:48;11.00;99.90
41310;DHT22;27057;51.438;-0.010;2023-05-21T05:49:16;11.10;99.90
41310;DHT22;27057;51.438;-0.010;2023-05-21T05:51:43;11.40;99.90
41310;DHT22;27057;51.438;-0.010;2023-05-21T05:54:11;11.30;99.90
41310;DHT22;27057;51.438;-0.010;2023-05-21T05:56:39;11.30;99.90
41310;DHT22;27057;51.438;-0.010;2023-05-21T05:59:06;11.60;99.90
41310;DHT22;27057;51.438;-0.010;2023-05-21T06:01:36;12.30;99.90
41310;DHT22;27057;51.438;-0.010;2023-05-21T06:04:05;11.50;99.90
41310;DHT22;27057;51.438;-0.010;2023-05-21T06:06:32;12.80;99.90
41310;DHT22;27057;51.438;-0.010;2023-05-21T06:09:01;11.40;99.90
41310;DHT22;27057;51.438;-0.010;2023-05-21T06:11:29;12.50;99.90
41310;DHT22;27057;51.438;-0.010;2023-05-21T06:13:56;11.60;99.90
41310;DHT22;27057;51.438;-0.010;2023-05-21T06:16:27;12.30;99.90
41310;DHT22;27057;51.438;-0.010;2023-05-21T06:18:58;12.90;99.90
41310;DHT22;27057;51.438;-0.010;2023-05-21T06:21:26;11.90;99.90
41310;DHT22;27057;51.438;-0.010;2023-05-21T06:23:53;12.00;99.90
41310;DHT22;27057;51.438;-0.010;2023-05-21T06:26:21;12.10;99.90
41310;DHT22;27057;51.438;-0.010;2023-05-21T06:28:51;13.60;99.90
41310;DHT22;27057;51.438;-0.010;2023-05-21T06:31:18;12.20;99.90
41310;DHT22;27057;51.438;-0.010;2023-05-21T06:33:48;13.00;99.90
41310;DHT22;27057;51.438;-0.010;2023-05-21T06:36:16;12.20;99.90
41310;DHT22;27057;51.438;-0.010;2023-05-21T06:38:44;12.60;99.90
41310;DHT22;27057;51.438;-0.010;2023-05-21T06:41:12;12.60;99.90
41310;DHT22;27057;51.438;-0.010;2023-05-21T06:44:06;12.70;99.90
41310;DHT22;27057;51.438;-0.010;2023-05-21T06:46:52;12.50;99.90
41310;DHT22;27057;51.438;-0.010;2023-05-21T06:49:20;12.60;99.90
41310;DHT22;27057;51.438;-0.010;2023-05-21T06:51:47;12.60;99.90
41310;DHT22;27057;51.438;-0.010;2023-05-21T06:54:15;13.10;99.90
41310;DHT22;27057;51.438;-0.010;2023-05-21T06:56:43;12.90;99.90
41310;DHT22;27057;51.438;-0.010;2023-05-21T06:59:11;12.70;99.90
41310;DHT22;27057;51.438;-0.010;2023-05-21T07:01:38;12.80;99.90
41310;DHT22;27057;51.438;-0.010;2023-05-21T07:04:09;12.70;99.90
41310;DHT22;27057;51.438;-0.010;2023-05-21T07:06:38;12.80;99.90
41310;DHT22;27057;51.438;-0.010;2023-05-21T07:09:05;13.60;99.90
41310;DHT22;27057;51.438;-0.010;2023-05-21T07:11:34;13.10;99.90
41310;DHT22;27057;51.438;-0.010;2023-05-21T07:14:03;13.40;99.90
41310;DHT22;27057;51.438;-0.010;2023-05-21T07:16:33;13.20;99.90
41310;DHT22;27057;51.438;-0.010;2023-05-21T07:19:01;13.40;99.90
41310;DHT22;27057;51.438;-0.010;2023-05-21T07:21:29;14.10;99.90
41310;DHT22;27057;51.438;-0.010;2023-05-21T07:23:57;14.60;99.90
41310;DHT22;27057;51.438;-0.010;2023-05-21T07:26:24;11.80;99.90
41310;DHT22;27057;51.438;-0.010;2023-05-21T07:28:53;14.10;99.90
41310;DHT22;27057;51.438;-0.010;2023-05-21T07:31:20;13.70;99.90
41310;DHT22;27057;51.438;-0.010;2023-05-21T07:33:50;13.70;99.90
41310;DHT22;27057;51.438;-0.010;2023-05-21T07:36:22;15.00;99.90
41310;DHT22;27057;51.438;-0.010;2023-05-21T07:38:50;14.00;99.90
41310;DHT22;27057;51.438;-0.010;2023-05-21T07:41:17;13.60;99.90
41310;DHT22;27057;51.438;-0.010;2023-05-21T07:43:47;15.50;99.90
41310;DHT22;27057;51.438;-0.010;2023-05-21T07:46:15;14.10;99.90
41310;DHT22;27057;51.438;-0.010;2023-05-21T07:48:43;14.20;99.90
41310;DHT22;27057;51.438;-0.010;2023-05-21T07:51:11;14.50;99.90
41310;DHT22;27057;51.438;-0.010;2023-05-21T07:53:39;15.20;99.90
41310;DHT22;27057;51.438;-0.010;2023-05-21T07:56:10;14.90;99.90
41310;DHT22;27057;51.438;-0.010;2023-05-21T07:58:38;14.60;99.90
41310;DHT22;27057;51.438;-0.010;2023-05-21T08:01:07;14.70;99.90
41310;DHT22;27057;51.438;-0.010;2023-05-21T08:03:34;14.80;99.90
41310;DHT22;27057;51.438;-0.010;2023-05-21T08:06:02;15.60;99.90
41310;DHT22;27057;51.438;-0.010;2023-05-21T08:08:29;14.80;99.90
41310;DHT22;27057;51.438;-0.010;2023-05-21T08:10:57;16.10;99.90
41310;DHT22;27057;51.438;-0.010;2023-05-21T08:13:26;16.10;99.90
41310;DHT22;27057;51.438;-0.010;2023-05-21T08:15:54;15.00;99.90
41310;DHT22;27057;51.438;-0.010;2023-05-21T08:18:23;15.20;99.90
41310;DHT22;27057;51.438;-0.010;2023-05-21T08:20:53;15.30;99.90
41310;DHT22;27057;51.438;-0.010;2023-05-21T08:23:23;16.20;99.90
41310;DHT22;27057;51.438;-0.010;2023-05-21T08:25:54;15.40;99.90
41310;DHT22;27057;51.438;-0.010;2023-05-21T08:28:21;15.50;99.90
41310;DHT22;27057;51.438;-0.010;2023-05-21T08:30:51;15.90;99.90
41310;DHT22;27057;51.438;-0.010;2023-05-21T08:33:21;15.60;99.90
41310;DHT22;27057;51.438;-0.010;2023-05-21T08:35:48;15.70;99.90
41310;DHT22;27057;51.438;-0.010;2023-05-21T08:38:29;16.70;99.90
41310;DHT22;27057;51.438;-0.010;2023-05-21T08:41:03;15.90;99.90
41310;DHT22;27057;51.438;-0.010;2023-05-21T08:43:35;16.00;99.90
41310;DHT22;27057;51.438;-0.010;2023-05-21T08:46:03;16.10;99.90
41310;DHT22;27057;51.438;-0.010;2023-05-21T08:48:36;16.20;99.90
41310;DHT22;27057;51.438;-0.010;2023-05-21T08:51:04;16.30;99.90
41310;DHT22;27057;51.438;-0.010;2023-05-21T08:53:37;16.40;99.90
41310;DHT22;27057;51.438;-0.010;2023-05-21T08:56:08;16.50;99.90
41310;DHT22;27057;51.438;-0.010;2023-05-21T08:58:45;16.60;99.90
41310;DHT22;27057;51.438;-0.010;2023-05-21T09:01:16;16.60;99.90
41310;DHT22;27057;51.438;-0.010;2023-05-21T09:03:49;16.70;99.90
41310;DHT22;27057;51.438;-0.010;2023-05-21T09:06:18;16.70;99.90
41310;DHT22;27057;51.438;-0.010;2023-05-21T09:08:55;16.70;99.90
41310;DHT22;27057;51.438;-0.010;2023-05-21T09:11:32;16.80;99.90
41310;DHT22;27057;51.438;-0.010;2023-05-21T09:14:00;16.90;99.90
41310;DHT22;27057;51.438;-0.010;2023-05-21T09:16:39;16.90;99.90
41310;DHT22;27057;51.438;-0.010;2023-05-21T09:19:07;17.00;99.90
41310;DHT22;27057;51.438;-0.010;2023-05-21T09:21:34;17.20;99.90
41310;DHT22;27057;51.438;-0.010;2023-05-21T09:24:10;17.30;99.90
41310;DHT22;27057;51.438;-0.010;2023-05-21T09:26:41;17.20;99.90
41310;DHT22;27057;51.438;-0.010;2023-05-21T09:29:12;17.20;99.90
41310;DHT22;27057;51.438;-0.010;2023-05-21T09:31:43;17.30;99.90
41310;DHT22;27057;51.438;-0.010;2023-05-21T09:34:14;17.30;99.90
41310;DHT22;27057;51.438;-0.010;2023-05-21T09:36:48;17.40;99.90
41310;DHT22;27057;51.438;-0.010;2023-05-21T09:39:28;17.60;99.90
41310;DHT22;27057;51.438;-0.010;2023-05-21T09:41:59;17.70;99.90
41310;DHT22;27057;51.438;-0.010;2023-05-21T09:44:27;17.70;99.90
41310;DHT22;27057;51.438;-0.010;2023-05-21T09:46:58;17.70;99.90
41310;DHT22;27057;51.438;-0.010;2023-05-21T09:49:26;18.00;99.90
41310;DHT22;27057;51.438;-0.010;2023-05-21T09:51:56;18.10;99.90
41310;DHT22;27057;51.438;-0.010;2023-05-21T09:54:24;18.40;99.90
41310;DHT22;27057;51.438;-0.010;2023-05-21T09:56:56;18.60;99.90
41310;DHT22;27057;51.438;-0.010;2023-05-21T09:59:35;18.80;99.90
41310;DHT22;27057;51.438;-0.010;2023-05-21T10:02:02;18.70;99.90
41310;DHT22;27057;51.438;-0.010;2023-05-21T10:04:40;18.60;99.90
41310;DHT22;27057;51.438;-0.010;2023-05-21T10:07:10;18.60;99.90
41310;DHT22;27057;51.438;-0.010;2023-05-21T10:09:38;18.60;99.90
41310;DHT22;27057;51.438;-0.010;2023-05-21T10:12:05;18.70;99.90
41310;DHT22;27057;51.438;-0.010;2023-05-21T10:14:34;18.20;99.90
41310;DHT22;27057;51.438;-0.010;2023-05-21T10:17:03;18.90;99.90
41310;DHT22;27057;51.438;-0.010;2023-05-21T10:19:33;18.60;99.90
41310;DHT22;27057;51.438;-0.010;2023-05-21T10:22:02;18.70;99.90
41310;DHT22;27057;51.438;-0.010;2023-05-21T10:24:31;18.70;99.90
41310;DHT22;27057;51.438;-0.010;2023-05-21T10:26:59;18.70;99.90
41310;DHT22;27057;51.438;-0.010;2023-05-21T10:29:28;18.80;99.90
41310;DHT22;27057;51.438;-0.010;2023-05-21T10:31:56;19.00;99.90
41310;DHT22;27057;51.438;-0.010;2023-05-21T10:34:26;18.90;99.90
41310;DHT22;27057;51.438;-0.010;2023-05-21T10:36:54;18.80;99.90
41310;DHT22;27057;51.438;-0.010;2023-05-21T10:39:24;18.90;99.90
41310;DHT22;27057;51.438;-0.010;2023-05-21T10:53:41;18.80;99.90
41310;DHT22;27057;51.438;-0.010;2023-05-21T10:56:23;19.10;99.90
41310;DHT22;27057;51.438;-0.010;2023-05-21T10:59:10;19.40;99.90
41310;DHT22;27057;51.438;-0.010;2023-05-21T11:01:44;19.60;99.90
41310;DHT22;27057;51.438;-0.010;2023-05-21T11:04:12;19.80;99.90
41310;DHT22;27057;51.438;-0.010;2023-05-21T11:06:46;19.90;99.90
41310;DHT22;27057;51.438;-0.010;2023-05-21T11:09:15;20.00;99.90
41310;DHT22;27057;51.438;-0.010;2023-05-21T11:14:30;19.70;99.90
41310;DHT22;27057;51.438;-0.010;2023-05-21T11:17:11;19.50;99.90
41310;DHT22;27057;51.438;-0.010;2023-05-21T11:19:44;19.30;99.90
41310;DHT22;27057;51.438;-0.010;2023-05-21T11:22:24;19.30;99.90
41310;DHT22;27057;51.438;-0.010;2023-05-21T11:24:53;19.30;99.90
41310;DHT22;27057;51.438;-0.010;2023-05-21T11:27:36;19.40;99.90
41310;DHT22;27057;51.438;-0.010;2023-05-21T11:30:05;19.50;99.90
41310;DHT22;27057;51.438;-0.010;2023-05-21T11:32:38;19.50;99.90
41310;DHT22;27057;51.438;-0.010;2023-05-21T11:35:12;19.40;99.90
41310;DHT22;27057;51.438;-0.010;2023-05-21T11:40:22;19.80;99.90
41310;DHT22;27057;51.438;-0.010;2023-05-21T11:42:55;20.10;99.90
41310;DHT22;27057;51.438;-0.010;2023-05-21T11:45:27;19.90;99.90
41310;DHT22;27057;51.438;-0.010;2023-05-21T11:47:55;19.90;99.90
41310;DHT22;27057;51.438;-0.010;2023-05-21T11:50:22;19.90;99.90
41310;DHT22;27057;51.438;-0.010;2023-05-21T11:52:50;19.70;99.90
41310;DHT22;27057;51.438;-0.010;2023-05-21T11:55:23;19.80;99.90
41310;DHT22;27057;51.438;-0.010;2023-05-21T11:57:52;19.90;99.90
41310;DHT22;27057;51.438;-0.010;2023-05-21T12:02:50;20.30;99.90
41310;DHT22;27057;51.438;-0.010;2023-05-21T12:05:18;20.90;99.90
41310;DHT22;27057;51.438;-0.010;2023-05-21T12:07:46;21.10;99.90
41310;DHT22;27057;51.438;-0.010;2023-05-21T12:10:20;21.70;99.90
41310;DHT22;27057;51.438;-0.010;2023-05-21T12:12:49;21.90;99.90
41310;DHT22;27057;51.438;-0.010;2023-05-21T12:15:24;22.10;99.70
41310;DHT22;27057;51.438;-0.010;2023-05-21T12:17:53;22.50;99.80
41310;DHT22;27057;51.438;-0.010;2023-05-21T12:20:21;22.80;99.00
41310;DHT22;27057;51.438;-0.010;2023-05-21T12:22:49;23.10;99.50
41310;DHT22;27057;51.438;-0.010;2023-05-21T12:25:21;23.30;98.20
41310;DHT22;27057;51.438;-0.010;2023-05-21T12:27:49;23.40;97.10
41310;DHT22;27057;51.438;-0.010;2023-05-21T12:30:25;23.60;97.80
41310;DHT22;27057;51.438;-0.010;2023-05-21T12:32:56;23.80;97.30
41310;DHT22;27057;51.438;-0.010;2023-05-21T12:35:23;23.60;96.40
41310;DHT22;27057;51.438;-0.010;2023-05-21T12:37:51;23.30;97.30
41310;DHT22;27057;51.438;-0.010;2023-05-21T12:40:19;23.60;97.50
41310;DHT22;27057;51.438;-0.010;2023-05-21T12:42:46;23.50;97.30
41310;DHT22;27057;51.438;-0.010;2023-05-21T12:45:14;23.60;97.80
41310;DHT22;27057;51.438;-0.010;2023-05-21T12:47:47;23.70;96.80
41310;DHT22;27057;51.438;-0.010;2023-05-21T12:50:19;23.30;97.50
41310;DHT22;27057;51.438;-0.010;2023-05-21T12:52:47;22.80;97.30
41310;DHT22;27057;51.438;-0.010;2023-05-21T12:55:15;22.50;98.10
41310;DHT22;27057;51.438;-0.010;2023-05-21T12:57:43;22.10;98.30
41310;DHT22;27057;51.438;-0.010;2023-05-21T13:00:11;21.90;98.60
41310;DHT22;27057;51.438;-0.010;2023-05-21T13:02:42;21.40;99.00
41310;DHT22;27057;51.438;-0.010;2023-05-21T13:05:17;21.20;99.60
41310;DHT22;27057;51.438;-0.010;2023-05-21T13:07:45;21.00;99.60
41310;DHT22;27057;51.438;-0.010;2023-05-21T13:10:14;20.80;99.70
41310;DHT22;27057;51.438;-0.010;2023-05-21T13:12:45;20.50;99.90
41310;DHT22;27057;51.438;-0.010;2023-05-21T13:15:12;20.50;99.90
41310;DHT22;27057;51.438;-0.010;2023-05-21T13:20:18;20.40;99.90
41310;DHT22;27057;51.438;-0.010;2023-05-21T13:22:52;20.40;99.90
41310;DHT22;27057;51.438;-0.010;2023-05-21T13:25:23;20.50;99.90
41310;DHT22;27057;51.438;-0.010;2023-05-21T13:27:52;20.30;99.90
41310;DHT22;27057;51.438;-0.010;2023-05-21T13:30:20;20.30;99.90
41310;DHT22;27057;51.438;-0.010;2023-05-21T13:32:48;20.20;99.90
41310;DHT22;27057;51.438;-0.010;2023-05-21T13:35:16;20.30;99.90
41310;DHT22;27057;51.438;-0.010;2023-05-21T13:37:44;20.30;99.90
41310;DHT22;27057;51.438;-0.010;2023-05-21T13:40:13;20.30;99.90
41310;DHT22;27057;51.438;-0.010;2023-05-21T13:42:42;20.40;99.90
41310;DHT22;27057;51.438;-0.010;2023-05-21T13:45:12;20.20;99.90
41310;DHT22;27057;51.438;-0.010;2023-05-21T13:47:40;20.20;99.90
41310;DHT22;27057;51.438;-0.010;2023-05-21T13:50:09;20.10;99.90
41310;DHT22;27057;51.438;-0.010;2023-05-21T13:52:37;20.10;99.90
41310;DHT22;27057;51.438;-0.010;2023-05-21T13:55:05;20.20;99.90
41310;DHT22;27057;51.438;-0.010;2023-05-21T13:57:32;20.20;99.90
41310;DHT22;27057;51.438;-0.010;2023-05-21T14:00:00;20.30;99.90
41310;DHT22;27057;51.438;-0.010;2023-05-21T14:02:33;20.30;99.90
41310;DHT22;27057;51.438;-0.010;2023-05-21T14:05:01;20.40;99.90
41310;DHT22;27057;51.438;-0.010;2023-05-21T14:07:28;20.40;99.90
41310;DHT22;27057;51.438;-0.010;2023-05-21T14:09:55;20.30;99.90
41310;DHT22;27057;51.438;-0.010;2023-05-21T14:12:23;20.40;99.90
41310;DHT22;27057;51.438;-0.010;2023-05-21T14:14:50;20.30;99.90
41310;DHT22;27057;51.438;-0.010;2023-05-21T14:17:18;20.30;99.90
41310;DHT22;27057;51.438;-0.010;2023-05-21T14:22:14;20.30;99.90
41310;DHT22;27057;51.438;-0.010;2023-05-21T14:24:41;20.20;99.90
41310;DHT22;27057;51.438;-0.010;2023-05-21T14:27:09;20.40;99.90
41310;DHT22;27057;51.438;-0.010;2023-05-21T14:29:38;20.30;99.90
41310;DHT22;27057;51.438;-0.010;2023-05-21T14:32:06;20.30;99.90
41310;DHT22;27057;51.438;-0.010;2023-05-21T14:34:33;20.30;99.90
41310;DHT22;27057;51.438;-0.010;2023-05-21T14:37:01;20.30;99.90
41310;DHT22;27057;51.438;-0.010;2023-05-21T14:39:28;20.20;99.90
41310;DHT22;27057;51.438;-0.010;2023-05-21T14:41:55;20.20;99.90
41310;DHT22;27057;51.438;-0.010;2023-05-21T14:44:23;20.20;99.90
41310;DHT22;27057;51.438;-0.010;2023-05-21T14:46:50;20.10;99.90
41310;DHT22;27057;51.438;-0.010;2023-05-21T14:56:41;20.00;99.90
41310;DHT22;27057;51.438;-0.010;2023-05-21T14:59:08;19.90;99.90
41310;DHT22;27057;51.438;-0.010;2023-05-21T15:01:38;19.80;99.90
41310;DHT22;27057;51.438;-0.010;2023-05-21T15:04:06;19.90;99.90
41310;DHT22;27057;51.438;-0.010;2023-05-21T15:06:34;20.10;99.90
41310;DHT22;27057;51.438;-0.010;2023-05-21T15:09:01;20.00;99.90
41310;DHT22;27057;51.438;-0.010;2023-05-21T15:11:28;20.00;99.90
41310;DHT22;27057;51.438;-0.010;2023-05-21T15:13:56;20.20;99.90
41310;DHT22;27057;51.438;-0.010;2023-05-21T15:16:23;20.30;99.90
41310;DHT22;27057;51.438;-0.010;2023-05-21T15:18:52;20.50;99.90
41310;DHT22;27057;51.438;-0.010;2023-05-21T15:21:19;20.50;99.90
41310;DHT22;27057;51.438;-0.010;2023-05-21T15:23:47;20.60;99.90
41310;DHT22;27057;51.438;-0.010;2023-05-21T15:26:14;20.60;99.90
41310;DHT22;27057;51.438;-0.010;2023-05-21T15:28:41;20.80;99.90
41310;DHT22;27057;51.438;-0.010;2023-05-21T15:31:10;20.70;99.90
41310;DHT22;27057;51.438;-0.010;2023-05-21T15:33:37;20.90;99.90
41310;DHT22;27057;51.438;-0.010;2023-05-21T15:36:05;20.90;99.90
41310;DHT22;27057;51.438;-0.010;2023-05-21T15:38:32;21.00;99.90
41310;DHT22;27057;51.438;-0.010;2023-05-21T15:41:00;21.10;99.90
41310;DHT22;27057;51.438;-0.010;2023-05-21T15:43:27;21.00;99.90
41310;DHT22;27057;51.438;-0.010;2023-05-21T15:45:54;20.90;99.90
41310;DHT22;27057;51.438;-0.010;2023-05-21T15:48:22;20.90;99.90
41310;DHT22;27057;51.438;-0.010;2023-05-21T15:50:49;20.80;99.90
41310;DHT22;27057;51.438;-0.010;2023-05-21T15:53:16;20.70;99.90
41310;DHT22;27057;51.438;-0.010;2023-05-21T15:55:44;20.60;99.90
41310;DHT22;27057;51.438;-0.010;2023-05-21T16:03:07;19.90;99.90
41310;DHT22;27057;51.438;-0.010;2023-05-21T16:05:34;20.30;99.90
41310;DHT22;27057;51.438;-0.010;2023-05-21T16:10:30;20.20;99.90
41310;DHT22;27057;51.438;-0.010;2023-05-21T16:12:57;20.10;99.90
41310;DHT22;27057;51.438;-0.010;2023-05-21T16:15:25;20.00;99.90
41310;DHT22;27057;51.438;-0.010;2023-05-21T16:17:54;20.00;99.90
41310;DHT22;27057;51.438;-0.010;2023-05-21T16:20:22;19.80;99.90
41310;DHT22;27057;51.438;-0.010;2023-05-21T16:22:49;19.70;99.90
41310;DHT22;27057;51.438;-0.010;2023-05-21T16:25:17;19.60;99.90
41310;DHT22;27057;51.438;-0.010;2023-05-21T16:30:12;19.40;99.90
41310;DHT22;27057;51.438;-0.010;2023-05-21T16:32:40;19.30;99.90
41310;DHT22;27057;51.438;-0.010;2023-05-21T16:35:08;19.40;99.90
41310;DHT22;27057;51.438;-0.010;2023-05-21T16:40:03;19.30;99.90
41310;DHT22;27057;51.438;-0.010;2023-05-21T16:44:58;18.80;99.90